createdAt,value
2022-11-12T00:01:17.905Z,6.80
2022-11-12T00:06:59.635Z,6.07
2022-11-12T00:12:41.466Z,5.47
2022-11-12T00:18:24.678Z,5.23
2022-11-12T00:24:06.993Z,5.60
2022-11-12T00:29:48.517Z,6.30
2022-11-12T00:35:32.015Z,5.37
2022-11-12T00:41:13.503Z,6.77
2022-11-12T00:46:55.082Z,5.50
2022-11-12T00:52:38.289Z,6.50
2022-11-12T00:58:19.927Z,6.27
2022-11-12T01:04:01.952Z,6.37
2022-11-12T01:09:45.081Z,6.53
2022-11-12T01:15:26.683Z,6.53
2022-11-12T01:21:09.724Z,6.43
2022-11-12T01:26:52.764Z,8.80
2022-11-12T01:32:36.802Z,9.13
2022-11-12T01:38:18.635Z,8.37
2022-11-12T01:44:16.689Z,8.03
2022-11-12T01:50:01.342Z,9.27
2022-11-12T01:55:43.067Z,8.93
2022-11-12T02:01:26.392Z,7.13
2022-11-12T02:07:08.774Z,8.13
2022-11-12T02:13:08.790Z,8.73
2022-11-12T02:18:51.921Z,9.67
2022-11-12T02:24:36.896Z,10.37
2022-11-12T02:30:19.008Z,9.87
2022-11-12T02:36:00.739Z,11.03
2022-11-12T02:41:44.064Z,12.13
2022-11-12T02:47:25.658Z,13.07
2022-11-12T02:53:07.528Z,13.53
2022-11-12T02:58:50.778Z,13.23
2022-11-12T03:04:32.315Z,14.07
2022-11-12T03:10:13.934Z,15.20
2022-11-12T03:16:01.789Z,15.07
2022-11-12T03:21:43.376Z,17.07
2022-11-12T03:27:25.368Z,16.83
2022-11-12T03:33:09.943Z,16.90
2022-11-12T03:38:51.745Z,17.80
2022-11-12T03:44:33.518Z,22.30
2022-11-12T03:50:18.116Z,20.53
2022-11-12T03:55:59.626Z,20.50
2022-11-12T04:01:41.214Z,18.13
2022-11-12T04:07:42.017Z,20.37
2022-11-12T04:13:29.878Z,19.00
2022-11-12T04:19:30.808Z,18.87
2022-11-12T04:25:31.373Z,15.90
2022-11-12T04:31:12.874Z,14.93
2022-11-12T04:36:54.529Z,17.20
2022-11-12T04:42:54.723Z,16.97
2022-11-12T04:48:36.454Z,17.30
2022-11-12T04:54:18.212Z,13.27
2022-11-12T05:00:01.366Z,15.27
2022-11-12T05:05:43.313Z,17.40
2022-11-12T05:11:25.138Z,18.03
2022-11-12T05:17:08.112Z,17.57
2022-11-12T05:23:05.014Z,18.03
2022-11-12T05:28:48.360Z,19.37
2022-11-12T05:34:31.456Z,18.60
2022-11-12T05:40:14.163Z,19.07
2022-11-12T05:45:55.694Z,24.03
2022-11-12T05:51:38.865Z,21.50
2022-11-12T05:57:20.405Z,22.17
2022-11-12T06:03:01.967Z,21.47
2022-11-12T06:08:45.118Z,21.13
2022-11-12T06:14:26.905Z,26.87
2022-11-12T06:20:09.766Z,24.37
2022-11-12T06:25:52.852Z,25.13
2022-11-12T06:31:34.777Z,23.03
2022-11-12T06:37:16.596Z,24.60
2022-11-12T06:43:00.245Z,25.17
2022-11-12T06:48:42.155Z,24.47
2022-11-12T06:54:23.815Z,26.37
2022-11-12T07:00:09.563Z,24.60
2022-11-12T07:05:51.385Z,24.00
2022-11-12T07:11:33.251Z,21.03
2022-11-12T07:17:16.351Z,23.33
2022-11-12T07:23:01.202Z,20.53
2022-11-12T07:28:43.147Z,18.83
2022-11-12T07:34:26.367Z,20.93
2022-11-12T07:40:08.936Z,16.77
2022-11-12T07:45:50.908Z,17.60
2022-11-12T07:51:33.969Z,18.20
2022-11-12T07:57:15.541Z,20.20
2022-11-12T08:03:00.619Z,19.60
2022-11-12T08:08:43.850Z,17.77
2022-11-12T08:14:26.004Z,18.97
2022-11-12T08:20:08.993Z,18.80
2022-11-12T08:25:52.086Z,19.10
2022-11-12T08:31:33.839Z,16.83
2022-11-12T08:37:15.429Z,19.63
2022-11-12T08:43:01.741Z,20.17
2022-11-12T08:48:43.639Z,20.40
2022-11-12T08:54:25.765Z,20.17
2022-11-12T09:00:10.001Z,23.93
2022-11-12T09:05:53.209Z,18.63
2022-11-12T09:11:34.635Z,19.77
2022-11-12T09:17:17.800Z,19.10
2022-11-12T09:23:00.313Z,20.03
2022-11-12T09:28:43.018Z,18.90
2022-11-12T09:34:26.414Z,21.10
2022-11-12T09:40:08.918Z,18.00
2022-11-12T09:46:06.892Z,18.37
2022-11-12T09:51:57.369Z,17.80
2022-11-12T09:57:38.916Z,18.97
2022-11-12T10:03:30.441Z,19.83
2022-11-12T10:09:17.902Z,18.27
2022-11-12T10:15:57.460Z,21.67
2022-11-12T10:21:45.824Z,18.63
2022-11-12T10:27:35.974Z,16.10
2022-11-12T10:33:17.549Z,15.87
2022-11-12T10:38:59.716Z,15.47
2022-11-12T10:44:43.531Z,15.70
2022-11-12T10:50:29.248Z,14.33
2022-11-12T10:56:25.822Z,14.93
2022-11-12T11:02:18.956Z,11.63
2022-11-12T11:08:01.627Z,12.87
2022-11-12T11:13:43.613Z,12.07
2022-11-12T11:19:31.961Z,9.53
2022-11-12T11:25:21.078Z,9.97
2022-11-12T11:31:08.215Z,9.80
2022-11-12T11:37:00.390Z,10.73
2022-11-12T11:42:58.040Z,8.53
2022-11-12T11:48:52.874Z,9.47
2022-11-12T11:54:49.941Z,7.00
2022-11-12T12:00:38.037Z,6.87
2022-11-12T12:06:25.756Z,6.47
2022-11-12T12:12:17.409Z,7.40
2022-11-12T12:18:05.134Z,7.27
2022-11-12T12:23:49.907Z,7.37
2022-11-12T12:29:36.032Z,5.67
2022-11-12T12:35:22.901Z,5.63
2022-11-12T12:41:07.925Z,5.53
2022-11-12T12:46:55.358Z,5.77
2022-11-12T12:53:01.043Z,4.77
2022-11-12T12:58:44.625Z,5.40
2022-11-12T13:04:53.495Z,4.93
2022-11-12T13:10:47.934Z,4.53
2022-11-12T13:16:58.447Z,4.70
2022-11-12T13:22:53.456Z,4.87
2022-11-12T13:28:35.269Z,5.10
2022-11-12T13:34:22.908Z,5.80
2022-11-12T13:40:11.405Z,4.23
2022-11-12T13:45:55.171Z,4.70
2022-11-12T13:51:40.765Z,5.13
2022-11-12T13:57:29.991Z,7.13
2022-11-12T14:03:17.299Z,5.90
2022-11-12T14:09:24.909Z,6.20
2022-11-12T14:15:21.482Z,6.47
2022-11-12T14:21:06.686Z,8.07
2022-11-12T14:26:48.551Z,7.07
2022-11-12T14:32:38.016Z,5.60
2022-11-12T14:38:21.345Z,6.37
2022-11-12T14:44:13.302Z,6.40
2022-11-12T14:49:56.839Z,6.77
2022-11-12T14:55:39.277Z,7.93
2022-11-12T15:02:03.888Z,6.60
2022-11-12T15:07:30.257Z,7.47
2022-11-12T15:13:14.272Z,7.20
2022-11-12T15:19:06.879Z,8.10
2022-11-12T15:24:50.057Z,8.03
2022-11-12T15:30:33.234Z,7.50
2022-11-12T15:36:17.038Z,8.17
2022-11-12T15:42:02.599Z,8.90
2022-11-12T15:47:44.507Z,7.57
2022-11-12T15:53:26.570Z,8.33
2022-11-12T15:59:12.110Z,7.77
2022-11-12T16:04:53.670Z,8.63
2022-11-12T16:10:36.367Z,7.17
2022-11-12T16:16:19.385Z,7.93
2022-11-12T16:22:01.353Z,8.80
2022-11-12T16:27:43.025Z,9.23
2022-11-12T16:33:26.595Z,7.93
2022-11-12T16:39:15.255Z,9.07
2022-11-12T16:44:56.763Z,9.80
2022-11-12T16:50:40.167Z,9.10
2022-11-12T16:56:23.086Z,9.13
2022-11-12T17:02:05.044Z,8.73
2022-11-12T17:07:48.091Z,8.90
2022-11-12T17:13:29.976Z,8.63
2022-11-12T17:19:12.265Z,8.67
2022-11-12T17:24:55.142Z,8.67
2022-11-12T17:30:37.037Z,8.77
2022-11-12T17:36:21.099Z,7.97
2022-11-12T17:42:04.066Z,7.73
2022-11-12T17:47:45.841Z,9.60
2022-11-12T17:53:27.923Z,11.50
2022-11-12T17:59:11.121Z,12.10
2022-11-12T18:04:52.850Z,11.60
2022-11-12T18:10:34.331Z,9.43
2022-11-12T18:16:19.630Z,11.17
2022-11-12T18:22:02.289Z,9.17
2022-11-12T18:27:44.562Z,10.73
2022-11-12T18:33:28.248Z,8.17
2022-11-12T18:39:09.986Z,9.70
2022-11-12T18:44:51.920Z,8.47
2022-11-12T18:50:35.218Z,8.23
2022-11-12T18:56:18.457Z,9.00
2022-11-12T19:02:00.382Z,8.57
2022-11-12T19:07:43.544Z,8.50
2022-11-12T19:13:25.534Z,9.40
2022-11-12T19:19:07.542Z,9.80
2022-11-12T19:24:50.643Z,8.70
2022-11-12T19:30:32.442Z,9.30
2022-11-12T19:36:15.770Z,7.93
2022-11-12T19:41:58.715Z,8.43
2022-11-12T19:47:40.516Z,9.40
2022-11-12T19:53:22.074Z,9.63
2022-11-12T19:59:05.411Z,7.40
2022-11-12T20:04:47.209Z,8.67
2022-11-12T20:10:29.004Z,8.43
2022-11-12T20:16:14.742Z,8.63
2022-11-12T20:21:56.578Z,12.17
2022-11-12T20:27:38.362Z,15.53
2022-11-12T20:33:21.493Z,11.07
2022-11-12T20:39:03.291Z,10.40
2022-11-12T20:44:45.042Z,11.07
2022-11-12T20:50:28.066Z,8.90
2022-11-12T20:56:11.432Z,8.47
2022-11-12T21:01:57.545Z,8.83
2022-11-12T21:07:40.429Z,7.50
2022-11-12T21:13:23.529Z,9.23
2022-11-12T21:19:05.779Z,9.90
2022-11-12T21:24:49.367Z,8.63
2022-11-12T21:30:30.947Z,8.73
2022-11-12T21:36:16.384Z,8.10
2022-11-12T21:41:59.693Z,8.30
2022-11-12T21:47:41.355Z,7.63
2022-11-12T21:53:23.059Z,9.53
2022-11-12T21:59:06.719Z,8.27
2022-11-12T22:04:48.508Z,8.77
2022-11-12T22:10:29.903Z,9.13
2022-11-12T22:16:16.822Z,9.80
2022-11-12T22:21:58.757Z,7.83
2022-11-12T22:27:40.516Z,7.97
2022-11-12T22:33:23.599Z,7.37
2022-11-12T22:39:05.844Z,6.87
2022-11-12T22:44:47.681Z,6.00
2022-11-12T22:50:30.999Z,4.50
2022-11-12T22:56:14.356Z,5.47
2022-11-12T23:01:56.265Z,6.20
2022-11-12T23:07:39.350Z,7.20
2022-11-12T23:13:21.270Z,6.00
2022-11-12T23:19:03.255Z,6.93
2022-11-12T23:24:46.595Z,8.43
2022-11-12T23:30:28.729Z,7.17
2022-11-12T23:36:11.703Z,6.10
2022-11-12T23:41:54.455Z,6.50
2022-11-12T23:47:36.337Z,8.10
2022-11-12T23:53:18.447Z,7.20
2022-11-12T23:59:01.552Z,7.10
